sensor_id;sensor_type;location;lat;lon;timestamp;pressure;altitude;pressure_sealevel;temperature;humidity
59787;BME280;45672;51.612;5.536;2023-11-21T00:01:05;100872.88;;;7.52;100.00
59787;BME280;45672;51.612;5.536;2023-11-21T00:03:34;100871.50;;;7.48;100.00
59787;BME280;45672;51.612;5.536;2023-11-21T00:05:59;100873.97;;;7.39;100.00
59787;BME280;45672;51.612;5.536;2023-11-21T00:08:25;100875.34;;;7.34;100.00
59787;BME280;45672;51.612;5.536;2023-11-21T00:10:51;100878.13;;;7.32;100.00
59787;BME280;45672;51.612;5.536;2023-11-21T00:13:16;100878.63;;;7.26;100.00
59787;BME280;45672;51.612;5.536;2023-11-21T00:15:41;100873.63;;;7.23;100.00
59787;BME280;45672;51.612;5.536;2023-11-21T00:18:07;100883.50;;;7.21;100.00
59787;BME280;45672;51.612;5.536;2023-11-21T00:20:32;100886.16;;;7.21;100.00
59787;BME280;45672;51.612;5.536;2023-11-21T00:22:57;100883.78;;;7.18;100.00
59787;BME280;45672;51.612;5.536;2023-11-21T00:25:24;100873.00;;;7.10;100.00
59787;BME280;45672;51.612;5.536;2023-11-21T00:27:50;100880.09;;;7.09;100.00
59787;BME280;45672;51.612;5.536;2023-11-21T00:30:15;100882.19;;;7.05;100.00
59787;BME280;45672;51.612;5.536;2023-11-21T00:32:41;100882.19;;;7.05;100.00
59787;BME280;45672;51.612;5.536;2023-11-21T00:35:06;100879.22;;;6.99;100.00
59787;BME280;45672;51.612;5.536;2023-11-21T00:37:32;100874.63;;;7.01;100.00
59787;BME280;45672;51.612;5.536;2023-11-21T00:39:57;100883.97;;;7.05;100.00
59787;BME280;45672;51.612;5.536;2023-11-21T00:42:23;100881.97;;;6.97;100.00
59787;BME280;45672;51.612;5.536;2023-11-21T00:44:48;100879.00;;;6.90;100.00
59787;BME280;45672;51.612;5.536;2023-11-21T00:47:13;100880.38;;;6.85;100.00
59787;BME280;45672;51.612;5.536;2023-11-21T00:49:39;100884.97;;;6.83;100.00
59787;BME280;45672;51.612;5.536;2023-11-21T00:52:05;100882.44;;;6.81;100.00
59787;BME280;45672;51.612;5.536;2023-11-21T00:54:30;100884.97;;;6.83;100.00
59787;BME280;45672;51.612;5.536;2023-11-21T00:56:55;100884.78;;;6.75;100.00
59787;BME280;45672;51.612;5.536;2023-11-21T00:59:22;100896.19;;;6.75;100.00
59787;BME280;45672;51.612;5.536;2023-11-21T01:01:48;100890.84;;;6.65;100.00
59787;BME280;45672;51.612;5.536;2023-11-21T01:04:13;100899.88;;;6.63;100.00
59787;BME280;45672;51.612;5.536;2023-11-21T01:06:38;100896.63;;;6.59;100.00
59787;BME280;45672;51.612;5.536;2023-11-21T01:09:04;100903.06;;;6.66;100.00
59787;BME280;45672;51.612;5.536;2023-11-21T01:11:34;100904.28;;;6.62;100.00
59787;BME280;45672;51.612;5.536;2023-11-21T01:14:01;100912.34;;;6.61;100.00
59787;BME280;45672;51.612;5.536;2023-11-21T01:16:28;100908.88;;;6.60;100.00
59787;BME280;45672;51.612;5.536;2023-11-21T01:18:53;100924.75;;;6.60;100.00
59787;BME280;45672;51.612;5.536;2023-11-21T01:21:19;100919.97;;;6.54;100.00
59787;BME280;45672;51.612;5.536;2023-11-21T01:23:44;100922.63;;;6.54;100.00
59787;BME280;45672;51.612;5.536;2023-11-21T01:26:09;100926.91;;;6.55;100.00
59787;BME280;45672;51.612;5.536;2023-11-21T01:28:35;100934.16;;;6.53;100.00
59787;BME280;45672;51.612;5.536;2023-11-21T01:31:00;100924.09;;;6.47;100.00
59787;BME280;45672;51.612;5.536;2023-11-21T01:33:25;100927.94;;;6.43;100.00
59787;BME280;45672;51.612;5.536;2023-11-21T01:35:51;100937.53;;;6.44;100.00
59787;BME280;45672;51.612;5.536;2023-11-21T01:38:18;100936.72;;;6.43;100.00
59787;BME280;45672;51.612;5.536;2023-11-21T01:40:43;100930.47;;;6.44;100.00
59787;BME280;45672;51.612;5.536;2023-11-21T01:43:09;100945.34;;;6.45;100.00
59787;BME280;45672;51.612;5.536;2023-11-21T01:45:34;100934.91;;;6.44;100.00
59787;BME280;45672;51.612;5.536;2023-11-21T01:48:00;100959.63;;;6.54;100.00
59787;BME280;45672;51.612;5.536;2023-11-21T01:50:26;100943.91;;;6.52;100.00
59787;BME280;45672;51.612;5.536;2023-11-21T01:52:51;100947.84;;;6.58;100.00
59787;BME280;45672;51.612;5.536;2023-11-21T01:55:18;100942.78;;;6.55;100.00
59787;BME280;45672;51.612;5.536;2023-11-21T01:57:45;100932.06;;;6.56;100.00
59787;BME280;45672;51.612;5.536;2023-11-21T02:00:11;100938.66;;;6.62;100.00
59787;BME280;45672;51.612;5.536;2023-11-21T02:02:45;100931.97;;;6.58;100.00
59787;BME280;45672;51.612;5.536;2023-11-21T02:05:12;100947.59;;;6.61;100.00
59787;BME280;45672;51.612;5.536;2023-11-21T02:07:39;100942.56;;;6.58;100.00
59787;BME280;45672;51.612;5.536;2023-11-21T02:10:05;100953.69;;;6.62;100.00
59787;BME280;45672;51.612;5.536;2023-11-21T02:12:31;100950.22;;;6.61;100.00
59787;BME280;45672;51.612;5.536;2023-11-21T02:14:56;100958.84;;;6.63;100.00
59787;BME280;45672;51.612;5.536;2023-11-21T02:17:21;100958.72;;;6.65;100.00
59787;BME280;45672;51.612;5.536;2023-11-21T02:19:47;100959.81;;;6.62;100.00
59787;BME280;45672;51.612;5.536;2023-11-21T02:22:16;100960.41;;;6.66;100.00
59787;BME280;45672;51.612;5.536;2023-11-21T02:24:42;100966.78;;;6.63;100.00
59787;BME280;45672;51.612;5.536;2023-11-21T02:27:07;100964.88;;;6.65;100.00
59787;BME280;45672;51.612;5.536;2023-11-21T02:29:33;100976.75;;;6.71;100.00
59787;BME280;45672;51.612;5.536;2023-11-21T02:31:58;100975.19;;;6.68;100.00
59787;BME280;45672;51.612;5.536;2023-11-21T02:34:24;100975.75;;;6.72;100.00
59787;BME280;45672;51.612;5.536;2023-11-21T02:36:50;100977.09;;;6.66;100.00
59787;BME280;45672;51.612;5.536;2023-11-21T02:39:16;100978.78;;;6.67;100.00
59787;BME280;45672;51.612;5.536;2023-11-21T02:41:43;100974.84;;;6.62;100.00
59787;BME280;45672;51.612;5.536;2023-11-21T02:44:09;100980.47;;;6.68;100.00
59787;BME280;45672;51.612;5.536;2023-11-21T02:46:35;100985.16;;;6.65;100.00
59787;BME280;45672;51.612;5.536;2023-11-21T02:49:02;100983.25;;;6.67;100.00
59787;BME280;45672;51.612;5.536;2023-11-21T02:51:27;100973.16;;;6.61;100.00
59787;BME280;45672;51.612;5.536;2023-11-21T02:53:53;100980.41;;;6.59;100.00
59787;BME280;45672;51.612;5.536;2023-11-21T02:56:18;100979.56;;;6.58;100.00
59787;BME280;45672;51.612;5.536;2023-11-21T02:58:44;100981.34;;;6.58;100.00
59787;BME280;45672;51.612;5.536;2023-11-21T03:01:10;100981.47;;;6.56;100.00
59787;BME280;45672;51.612;5.536;2023-11-21T03:03:36;100981.47;;;6.56;100.00
59787;BME280;45672;51.612;5.536;2023-11-21T03:06:06;100982.56;;;6.53;100.00
59787;BME280;45672;51.612;5.536;2023-11-21T03:08:31;100972.50;;;6.47;100.00
59787;BME280;45672;51.612;5.536;2023-11-21T03:10:57;100966.47;;;6.45;100.00
59787;BME280;45672;51.612;5.536;2023-11-21T03:13:22;100978.50;;;6.49;100.00
59787;BME280;45672;51.612;5.536;2023-11-21T03:15:48;100984.16;;;6.45;100.00
59787;BME280;45672;51.612;5.536;2023-11-21T03:18:13;100977.69;;;6.37;100.00
59787;BME280;45672;51.612;5.536;2023-11-21T03:20:39;100990.41;;;6.44;100.00
59787;BME280;45672;51.612;5.536;2023-11-21T03:23:04;101000.97;;;6.44;100.00
59787;BME280;45672;51.612;5.536;2023-11-21T03:25:30;100992.81;;;6.47;100.00
59787;BME280;45672;51.612;5.536;2023-11-21T03:27:56;100994.22;;;6.51;100.00
59787;BME280;45672;51.612;5.536;2023-11-21T03:30:21;100993.25;;;6.52;100.00
59787;BME280;45672;51.612;5.536;2023-11-21T03:32:47;100987.84;;;6.53;100.00
59787;BME280;45672;51.612;5.536;2023-11-21T03:35:12;100992.31;;;6.53;100.00
59787;BME280;45672;51.612;5.536;2023-11-21T03:37:37;100993.63;;;6.59;100.00
59787;BME280;45672;51.612;5.536;2023-11-21T03:40:07;100990.38;;;6.55;100.00
59787;BME280;45672;51.612;5.536;2023-11-21T03:42:33;100993.25;;;6.52;100.00
59787;BME280;45672;51.612;5.536;2023-11-21T03:44:58;100999.50;;;6.51;100.00
59787;BME280;45672;51.612;5.536;2023-11-21T03:47:24;100997.72;;;6.51;100.00
59787;BME280;45672;51.612;5.536;2023-11-21T03:49:49;101002.38;;;6.59;100.00
59787;BME280;45672;51.612;5.536;2023-11-21T03:52:14;101001.28;;;6.62;100.00
59787;BME280;45672;51.612;5.536;2023-11-21T03:54:40;100998.66;;;6.62;100.00
59787;BME280;45672;51.612;5.536;2023-11-21T03:57:05;100994.81;;;6.54;100.00
59787;BME280;45672;51.612;5.536;2023-11-21T03:59:30;101004.44;;;6.55;100.00
59787;BME280;45672;51.612;5.536;2023-11-21T04:01:56;101008.31;;;6.51;100.00
59787;BME280;45672;51.612;5.536;2023-11-21T04:04:22;101019.81;;;6.50;100.00
59787;BME280;45672;51.612;5.536;2023-11-21T04:06:48;101023.09;;;6.43;100.00
59787;BME280;45672;51.612;5.536;2023-11-21T04:09:13;101022.59;;;6.49;100.00
59787;BME280;45672;51.612;5.536;2023-11-21T04:11:38;101028.13;;;6.46;100.00
59787;BME280;45672;51.612;5.536;2023-11-21T04:14:04;101019.84;;;6.39;100.00
59787;BME280;45672;51.612;5.536;2023-11-21T04:16:29;101026.84;;;6.29;100.00
59787;BME280;45672;51.612;5.536;2023-11-21T04:18:54;101034.03;;;6.27;100.00
59787;BME280;45672;51.612;5.536;2023-11-21T04:21:20;101041.63;;;6.20;100.00
59787;BME280;45672;51.612;5.536;2023-11-21T04:23:45;101037.56;;;6.16;100.00
59787;BME280;45672;51.612;5.536;2023-11-21T04:26:11;101042.97;;;6.14;100.00
59787;BME280;45672;51.612;5.536;2023-11-21T04:28:37;101042.47;;;6.09;100.00
59787;BME280;45672;51.612;5.536;2023-11-21T04:31:02;101050.75;;;6.04;100.00
59787;BME280;45672;51.612;5.536;2023-11-21T04:33:27;101045.13;;;5.98;100.00
59787;BME280;45672;51.612;5.536;2023-11-21T04:35:54;101051.84;;;6.02;100.00
59787;BME280;45672;51.612;5.536;2023-11-21T04:38:19;101064.44;;;5.98;100.00
59787;BME280;45672;51.612;5.536;2023-11-21T04:40:44;101050.50;;;5.96;100.00
59787;BME280;45672;51.612;5.536;2023-11-21T04:43:10;101058.66;;;5.93;100.00
59787;BME280;45672;51.612;5.536;2023-11-21T04:45:35;101061.28;;;5.93;100.00
59787;BME280;45672;51.612;5.536;2023-11-21T04:48:00;101054.72;;;5.99;100.00
59787;BME280;45672;51.612;5.536;2023-11-21T04:50:25;101060.97;;;6.09;100.00
59787;BME280;45672;51.612;5.536;2023-11-21T04:52:52;101068.19;;;6.18;100.00
59787;BME280;45672;51.612;5.536;2023-11-21T04:55:17;101077.44;;;6.24;100.00
59787;BME280;45672;51.612;5.536;2023-11-21T04:57:43;101075.25;;;6.29;100.00
59787;BME280;45672;51.612;5.536;2023-11-21T05:00:11;101078.38;;;6.34;100.00
59787;BME280;45672;51.612;5.536;2023-11-21T05:02:37;101074.28;;;6.30;100.00
59787;BME280;45672;51.612;5.536;2023-11-21T05:05:03;101088.69;;;6.37;100.00
59787;BME280;45672;51.612;5.536;2023-11-21T05:07:31;101094.22;;;6.34;100.00
59787;BME280;45672;51.612;5.536;2023-11-21T05:09:57;101088.56;;;6.28;100.00
59787;BME280;45672;51.612;5.536;2023-11-21T05:12:23;101100.59;;;6.32;100.00
59787;BME280;45672;51.612;5.536;2023-11-21T05:14:49;101095.91;;;6.35;100.00
59787;BME280;45672;51.612;5.536;2023-11-21T05:17:14;101094.22;;;6.34;100.00
59787;BME280;45672;51.612;5.536;2023-11-21T05:19:40;101107.91;;;6.39;100.00
59787;BME280;45672;51.612;5.536;2023-11-21T05:22:06;101102.28;;;6.44;100.00
59787;BME280;45672;51.612;5.536;2023-11-21T05:24:31;101109.22;;;6.45;100.00
59787;BME280;45672;51.612;5.536;2023-11-21T05:26:56;101101.41;;;6.44;100.00
59787;BME280;45672;51.612;5.536;2023-11-21T05:29:22;101103.47;;;6.40;100.00
59787;BME280;45672;51.612;5.536;2023-11-21T05:31:48;101108.03;;;6.38;100.00
59787;BME280;45672;51.612;5.536;2023-11-21T05:34:13;101105.03;;;6.31;100.00
59787;BME280;45672;51.612;5.536;2023-11-21T05:36:39;101107.44;;;6.34;100.00
59787;BME280;45672;51.612;5.536;2023-11-21T05:39:05;101116.94;;;6.37;100.00
59787;BME280;45672;51.612;5.536;2023-11-21T05:41:30;101125.00;;;6.35;100.00
59787;BME280;45672;51.612;5.536;2023-11-21T05:43:55;101126.41;;;6.39;100.00
59787;BME280;45672;51.612;5.536;2023-11-21T05:46:20;101125.19;;;6.44;100.00
59787;BME280;45672;51.612;5.536;2023-11-21T05:48:47;101132.53;;;6.51;100.00
59787;BME280;45672;51.612;5.536;2023-11-21T05:51:12;101139.03;;;6.59;100.00
59787;BME280;45672;51.612;5.536;2023-11-21T05:53:39;101141.78;;;6.57;100.00
59787;BME280;45672;51.612;5.536;2023-11-21T05:56:04;101145.13;;;6.59;100.00
59787;BME280;45672;51.612;5.536;2023-11-21T05:58:29;101146.00;;;6.60;100.00
59787;BME280;45672;51.612;5.536;2023-11-21T06:00:55;101144.44;;;6.57;100.00
59787;BME280;45672;51.612;5.536;2023-11-21T06:03:20;101147.44;;;6.64;100.00
59787;BME280;45672;51.612;5.536;2023-11-21T06:05:45;101153.19;;;6.69;100.00
59787;BME280;45672;51.612;5.536;2023-11-21T06:08:10;101155.13;;;6.67;100.00
59787;BME280;45672;51.612;5.536;2023-11-21T06:10:36;101152.72;;;6.64;100.00
59787;BME280;45672;51.612;5.536;2023-11-21T06:13:01;101155.38;;;6.64;100.00
59787;BME280;45672;51.612;5.536;2023-11-21T06:15:29;101160.03;;;6.71;100.00
59787;BME280;45672;51.612;5.536;2023-11-21T06:17:54;101158.22;;;6.72;100.00
59787;BME280;45672;51.612;5.536;2023-11-21T06:20:21;101163.25;;;6.75;100.00
59787;BME280;45672;51.612;5.536;2023-11-21T06:22:49;101172.19;;;6.74;100.00
59787;BME280;45672;51.612;5.536;2023-11-21T06:25:15;101169.88;;;6.69;100.00
59787;BME280;45672;51.612;5.536;2023-11-21T06:27:45;101170.13;;;6.66;100.00
59787;BME280;45672;51.612;5.536;2023-11-21T06:30:11;101173.50;;;6.68;100.00
59787;BME280;45672;51.612;5.536;2023-11-21T06:32:39;101168.69;;;6.62;100.00
59787;BME280;45672;51.612;5.536;2023-11-21T06:35:06;101177.81;;;6.69;100.00
59787;BME280;45672;51.612;5.536;2023-11-21T06:37:32;101183.72;;;6.73;100.00
59787;BME280;45672;51.612;5.536;2023-11-21T06:39:59;101181.19;;;6.71;100.00
59787;BME280;45672;51.612;5.536;2023-11-21T06:42:25;101185.53;;;6.72;100.00
59787;BME280;45672;51.612;5.536;2023-11-21T06:44:51;101181.19;;;6.71;100.00
59787;BME280;45672;51.612;5.536;2023-11-21T06:47:17;101189.72;;;6.75;100.00
59787;BME280;45672;51.612;5.536;2023-11-21T06:49:43;101181.91;;;6.73;100.00
59787;BME280;45672;51.612;5.536;2023-11-21T06:52:08;101180.47;;;6.69;100.00
59787;BME280;45672;51.612;5.536;2023-11-21T06:54:33;101189.63;;;6.65;100.00
59787;BME280;45672;51.612;5.536;2023-11-21T06:57:00;101197.19;;;6.70;100.00
59787;BME280;45672;51.612;5.536;2023-11-21T06:59:25;101200.41;;;6.73;100.00
59787;BME280;45672;51.612;5.536;2023-11-21T07:01:50;101199.72;;;6.71;100.00
59787;BME280;45672;51.612;5.536;2023-11-21T07:04:16;101203.91;;;6.74;100.00
59787;BME280;45672;51.612;5.536;2023-11-21T07:06:41;101212.94;;;6.71;100.00
59787;BME280;45672;51.612;5.536;2023-11-21T07:09:08;101211.00;;;6.73;100.00
59787;BME280;45672;51.612;5.536;2023-11-21T07:11:34;101216.06;;;6.77;100.00
59787;BME280;45672;51.612;5.536;2023-11-21T07:14:00;101215.81;;;6.80;100.00
59787;BME280;45672;51.612;5.536;2023-11-21T07:16:35;101214.00;;;6.80;100.00
59787;BME280;45672;51.612;5.536;2023-11-21T07:19:03;101228.66;;;6.84;100.00
59787;BME280;45672;51.612;5.536;2023-11-21T07:21:34;101224.22;;;6.85;100.00
59787;BME280;45672;51.612;5.536;2023-11-21T07:24:00;101231.69;;;6.91;100.00
59787;BME280;45672;51.612;5.536;2023-11-21T07:26:29;101243.69;;;6.95;100.00
59787;BME280;45672;51.612;5.536;2023-11-21T07:28:54;101238.75;;;6.90;100.00
59787;BME280;45672;51.612;5.536;2023-11-21T07:31:21;101238.88;;;6.89;100.00
59787;BME280;45672;51.612;5.536;2023-11-21T07:33:47;101237.78;;;6.92;100.00
59787;BME280;45672;51.612;5.536;2023-11-21T07:36:12;101228.53;;;6.86;100.00
59787;BME280;45672;51.612;5.536;2023-11-21T07:38:38;101239.94;;;6.86;100.00
59787;BME280;45672;51.612;5.536;2023-11-21T07:41:04;101248.50;;;6.90;100.00
59787;BME280;45672;51.612;5.536;2023-11-21T07:43:29;101258.47;;;6.86;100.00
59787;BME280;45672;51.612;5.536;2023-11-21T07:46:00;101262.94;;;6.86;100.00
59787;BME280;45672;51.612;5.536;2023-11-21T07:48:27;101266.19;;;6.89;100.00
59787;BME280;45672;51.612;5.536;2023-11-21T07:50:53;101274.47;;;6.96;100.00
59787;BME280;45672;51.612;5.536;2023-11-21T07:53:18;101262.44;;;6.92;100.00
59787;BME280;45672;51.612;5.536;2023-11-21T07:55:43;101279.53;;;6.99;100.00
59787;BME280;45672;51.612;5.536;2023-11-21T07:58:10;101273.13;;;7.02;100.00
59787;BME280;45672;51.612;5.536;2023-11-21T08:00:38;101280.94;;;7.03;100.00
59787;BME280;45672;51.612;5.536;2023-11-21T08:03:04;101277.09;;;7.07;100.00
59787;BME280;45672;51.612;5.536;2023-11-21T08:05:30;101280.38;;;7.11;100.00
59787;BME280;45672;51.612;5.536;2023-11-21T08:07:56;101283.00;;;7.11;100.00
59787;BME280;45672;51.612;5.536;2023-11-21T08:10:21;101277.59;;;7.13;100.00
59787;BME280;45672;51.612;5.536;2023-11-21T08:12:47;101281.94;;;7.14;100.00
59787;BME280;45672;51.612;5.536;2023-11-21T08:15:14;101286.03;;;7.18;100.00
59787;BME280;45672;51.612;5.536;2023-11-21T08:17:39;101290.69;;;7.25;100.00
59787;BME280;45672;51.612;5.536;2023-11-21T08:20:05;101292.63;;;7.35;100.00
59787;BME280;45672;51.612;5.536;2023-11-21T08:22:31;101304.00;;;7.47;100.00
59787;BME280;45672;51.612;5.536;2023-11-21T08:24:57;101298.22;;;7.53;100.00
59787;BME280;45672;51.612;5.536;2023-11-21T08:27:22;101306.75;;;7.56;100.00
59787;BME280;45672;51.612;5.536;2023-11-21T08:29:48;101305.69;;;7.59;100.00
59787;BME280;45672;51.612;5.536;2023-11-21T08:32:13;101308.06;;;7.62;100.00
59787;BME280;45672;51.612;5.536;2023-11-21T08:34:39;101317.09;;;7.59;100.00
59787;BME280;45672;51.612;5.536;2023-11-21T08:37:05;101316.38;;;7.57;100.00
59787;BME280;45672;51.612;5.536;2023-11-21T08:39:30;101325.31;;;7.56;100.00
59787;BME280;45672;51.612;5.536;2023-11-21T08:41:57;101320.13;;;7.55;100.00
59787;BME280;45672;51.612;5.536;2023-11-21T08:44:22;101342.75;;;7.59;100.00
59787;BME280;45672;51.612;5.536;2023-11-21T08:46:48;101345.41;;;7.59;100.00
59787;BME280;45672;51.612;5.536;2023-11-21T08:49:14;101342.63;;;7.61;100.00
59787;BME280;45672;51.612;5.536;2023-11-21T08:51:40;101345.84;;;7.64;100.00
59787;BME280;45672;51.612;5.536;2023-11-21T08:54:06;101346.34;;;7.69;100.00
59787;BME280;45672;51.612;5.536;2023-11-21T08:56:34;101346.34;;;7.69;100.00
59787;BME280;45672;51.612;5.536;2023-11-21T08:58:59;101338.63;;;7.78;100.00
59787;BME280;45672;51.612;5.536;2023-11-21T09:01:27;101339.94;;;7.83;100.00
59787;BME280;45672;51.612;5.536;2023-11-21T09:03:53;101336.63;;;7.91;100.00
59787;BME280;45672;51.612;5.536;2023-11-21T09:06:18;101339.91;;;7.94;100.00
59787;BME280;45672;51.612;5.536;2023-11-21T09:08:44;101350.56;;;8.04;100.00
59787;BME280;45672;51.612;5.536;2023-11-21T09:11:09;101344.91;;;8.09;100.00
59787;BME280;45672;51.612;5.536;2023-11-21T09:13:35;101352.19;;;8.17;100.00
59787;BME280;45672;51.612;5.536;2023-11-21T09:16:01;101349.78;;;8.25;100.00
59787;BME280;45672;51.612;5.536;2023-11-21T09:18:26;101360.59;;;8.33;100.00
59787;BME280;45672;51.612;5.536;2023-11-21T09:20:52;101364.28;;;8.42;100.00
59787;BME280;45672;51.612;5.536;2023-11-21T09:23:17;101372.59;;;8.49;100.00
59787;BME280;45672;51.612;5.536;2023-11-21T09:25:43;101374.72;;;8.55;100.00
59787;BME280;45672;51.612;5.536;2023-11-21T09:28:11;101358.47;;;8.48;100.00
59787;BME280;45672;51.612;5.536;2023-11-21T09:30:37;101379.97;;;8.66;100.00
59787;BME280;45672;51.612;5.536;2023-11-21T09:33:03;101384.53;;;8.64;100.00
59787;BME280;45672;51.612;5.536;2023-11-21T09:35:33;101385.41;;;8.65;100.00
59787;BME280;45672;51.612;5.536;2023-11-21T09:37:59;101387.94;;;8.66;100.00
59787;BME280;45672;51.612;5.536;2023-11-21T09:40:26;101395.75;;;8.68;100.00
59787;BME280;45672;51.612;5.536;2023-11-21T09:42:56;101395.75;;;8.68;100.00
59787;BME280;45672;51.612;5.536;2023-11-21T09:45:29;101409.34;;;8.74;100.00
59787;BME280;45672;51.612;5.536;2023-11-21T09:48:00;101399.69;;;8.73;100.00
59787;BME280;45672;51.612;5.536;2023-11-21T09:50:26;101411.63;;;8.79;100.00
59787;BME280;45672;51.612;5.536;2023-11-21T09:53:18;101413.16;;;8.82;100.00
59787;BME280;45672;51.612;5.536;2023-11-21T09:55:48;101421.00;;;8.83;100.00
59787;BME280;45672;51.612;5.536;2023-11-21T09:58:16;101426.16;;;8.85;100.00
59787;BME280;45672;51.612;5.536;2023-11-21T10:00:47;101425.44;;;8.83;100.00
59787;BME280;45672;51.612;5.536;2023-11-21T10:03:13;101428.97;;;8.83;100.00
59787;BME280;45672;51.612;5.536;2023-11-21T10:05:40;101424.34;;;8.85;100.00
59787;BME280;45672;51.612;5.536;2023-11-21T10:08:09;101431.34;;;8.86;100.00
59787;BME280;45672;51.612;5.536;2023-11-21T10:10:36;101430.38;;;8.87;100.00
59787;BME280;45672;51.612;5.536;2023-11-21T10:13:04;101430.94;;;8.91;100.00
59787;BME280;45672;51.612;5.536;2023-11-21T10:15:34;101431.69;;;8.93;100.00
59787;BME280;45672;51.612;5.536;2023-11-21T10:18:03;101441.31;;;8.94;100.00
59787;BME280;45672;51.612;5.536;2023-11-21T10:20:30;101450.25;;;8.93;100.00
59787;BME280;45672;51.612;5.536;2023-11-21T10:22:56;101445.22;;;8.90;100.00
59787;BME280;45672;51.612;5.536;2023-11-21T10:25:22;101458.91;;;8.95;100.00
59787;BME280;45672;51.612;5.536;2023-11-21T10:27:48;101453.47;;;8.96;100.00
59787;BME280;45672;51.612;5.536;2023-11-21T10:30:16;101457.56;;;9.01;100.00
59787;BME280;45672;51.612;5.536;2023-11-21T10:32:42;101454.22;;;8.99;100.00
59787;BME280;45672;51.612;5.536;2023-11-21T10:35:08;101466.00;;;9.06;100.00
59787;BME280;45672;51.612;5.536;2023-11-21T10:37:37;101466.69;;;9.08;100.00
59787;BME280;45672;51.612;5.536;2023-11-21T10:40:07;101473.69;;;9.09;100.00
59787;BME280;45672;51.612;5.536;2023-11-21T10:42:33;101467.16;;;9.13;100.00
59787;BME280;45672;51.612;5.536;2023-11-21T10:44:58;101470.38;;;9.17;100.00
59787;BME280;45672;51.612;5.536;2023-11-21T10:47:24;101457.81;;;9.19;100.00
59787;BME280;45672;51.612;5.536;2023-11-21T10:49:51;101467.22;;;9.23;100.00
59787;BME280;45672;51.612;5.536;2023-11-21T10:52:19;101470.06;;;9.31;100.00
59787;BME280;45672;51.612;5.536;2023-11-21T10:54:46;101468.63;;;9.48;100.00
59787;BME280;45672;51.612;5.536;2023-11-21T10:57:14;101465.84;;;9.59;100.00
59787;BME280;45672;51.612;5.536;2023-11-21T10:59:45;101465.59;;;9.62;100.00
59787;BME280;45672;51.612;5.536;2023-11-21T11:02:21;101464.31;;;9.57;100.00
59787;BME280;45672;51.612;5.536;2023-11-21T11:04:48;101461.06;;;9.53;100.00
59787;BME280;45672;51.612;5.536;2023-11-21T11:07:15;101466.19;;;9.76;100.00
59787;BME280;45672;51.612;5.536;2023-11-21T11:09:41;101477.47;;;10.09;100.00
59787;BME280;45672;51.612;5.536;2023-11-21T11:12:08;101478.19;;;10.11;100.00
59787;BME280;45672;51.612;5.536;2023-11-21T11:14:35;101482.06;;;9.97;100.00
59787;BME280;45672;51.612;5.536;2023-11-21T11:17:01;101485.25;;;9.81;100.00
59787;BME280;45672;51.612;5.536;2023-11-21T11:19:27;101492.22;;;9.72;100.00
59787;BME280;45672;51.612;5.536;2023-11-21T11:27:44;101498.03;;;9.66;100.00
59787;BME280;45672;51.612;5.536;2023-11-21T11:33:28;101501.78;;;9.94;100.00
59787;BME280;45672;51.612;5.536;2023-11-21T11:36:25;101491.75;;;9.98;100.00
59787;BME280;45672;51.612;5.536;2023-11-21T11:38:51;101504.53;;;10.14;100.00
59787;BME280;45672;51.612;5.536;2023-11-21T11:41:28;101510.56;;;10.26;100.00
59787;BME280;45672;51.612;5.536;2023-11-21T11:43:57;101522.31;;;10.13;100.00
59787;BME280;45672;51.612;5.536;2023-11-21T11:46:42;101528.00;;;10.09;100.00
59787;BME280;45672;51.612;5.536;2023-11-21T11:49:07;101522.41;;;10.02;100.00
59787;BME280;45672;51.612;5.536;2023-11-21T11:51:33;101524.34;;;10.00;100.00
59787;BME280;45672;51.612;5.536;2023-11-21T11:54:01;101533.13;;;9.91;100.00
59787;BME280;45672;51.612;5.536;2023-11-21T11:56:33;101545.69;;;9.89;100.00
59787;BME280;45672;51.612;5.536;2023-11-21T11:59:01;101538.13;;;9.84;100.00
59787;BME280;45672;51.612;5.536;2023-11-21T12:01:34;101559.41;;;9.84;100.00
59787;BME280;45672;51.612;5.536;2023-11-21T12:06:42;101550.91;;;9.69;100.00
59787;BME280;45672;51.612;5.536;2023-11-21T12:09:22;101557.66;;;9.73;100.00
59787;BME280;45672;51.612;5.536;2023-11-21T12:11:51;101551.78;;;9.70;100.00
59787;BME280;45672;51.612;5.536;2023-11-21T12:14:17;101565.06;;;9.70;100.00
59787;BME280;45672;51.612;5.536;2023-11-21T12:16:43;101572.44;;;9.66;100.00
59787;BME280;45672;51.612;5.536;2023-11-21T12:19:12;101572.44;;;9.66;100.00
59787;BME280;45672;51.612;5.536;2023-11-21T12:21:38;101564.41;;;9.56;100.00
59787;BME280;45672;51.612;5.536;2023-11-21T12:24:04;101568.88;;;9.56;100.00
59787;BME280;45672;51.612;5.536;2023-11-21T12:26:33;101571.53;;;9.56;100.00
59787;BME280;45672;51.612;5.536;2023-11-21T12:28:59;101569.59;;;9.58;100.00
59787;BME280;45672;51.612;5.536;2023-11-21T12:31:25;101585.84;;;9.64;100.00
59787;BME280;45672;51.612;5.536;2023-11-21T12:33:50;101579.97;;;9.61;100.00
59787;BME280;45672;51.612;5.536;2023-11-21T12:36:16;101583.19;;;9.64;100.00
59787;BME280;45672;51.612;5.536;2023-11-21T12:38:41;101589.69;;;9.51;100.00
59787;BME280;45672;51.612;5.536;2023-11-21T12:41:07;101585.84;;;9.43;100.00
59787;BME280;45672;51.612;5.536;2023-11-21T12:43:33;101592.66;;;9.36;100.00
59787;BME280;45672;51.612;5.536;2023-11-21T12:46:07;101590.13;;;9.35;100.00
59787;BME280;45672;51.612;5.536;2023-11-21T12:48:32;101591.50;;;9.29;100.00
59787;BME280;45672;51.612;5.536;2023-11-21T12:50:58;101581.00;;;9.27;100.00
59787;BME280;45672;51.612;5.536;2023-11-21T12:53:25;101591.34;;;9.30;100.00
59787;BME280;45672;51.612;5.536;2023-11-21T12:55:51;101585.66;;;9.35;100.00
59787;BME280;45672;51.612;5.536;2023-11-21T12:58:17;101589.56;;;9.31;100.00